Time;durP1;ratioP1;P1;durP2;ratioP2;P2;SDS_P1;SDS_P2;PMS_P1;PMS_P2;Temp;Humidity;BMP_temperature;BMP_pressure;BME280_temperature;BME280_humidity;BME280_pressure;Samples;Min_cycle;Max_cycle;Signal;HPM_P1;HPM_P2
2023/04/25 00:01:35;;;;;;;12.68;7.03;;;;;;;-144.57;100.00;62443.72;5067898;28;20083;-65
2023/04/25 00:04:02;;;;;;;14.68;6.68;;;;;;;-144.57;100.00;62443.72;5069943;28;20113;-66
2023/04/25 00:06:29;;;;;;;14.05;7.32;;;;;;;-144.57;100.00;62443.72;5068237;28;20457;-66
2023/04/25 00:08:56;;;;;;;15.82;6.68;;;;;;;-144.57;100.00;62443.72;5068777;28;20086;-66
2023/04/25 00:11:22;;;;;;;13.65;6.97;;;;;;;-144.57;100.00;62443.72;5066666;28;20498;-64
2023/04/25 00:13:50;;;;;;;11.25;7.05;;;;;;;-144.57;100.00;62443.72;5068477;28;20036;-65
2023/04/25 00:16:17;;;;;;;16.20;7.40;;;;;;;-144.57;100.00;62443.72;5067161;28;20048;-65
2023/04/25 00:18:43;;;;;;;14.32;7.18;;;;;;;-144.57;100.00;62443.72;5055599;28;20032;-67
2023/04/25 00:21:09;;;;;;;16.33;7.80;;;;;;;-144.57;100.00;62443.72;5054737;28;20102;-67
2023/04/25 00:23:36;;;;;;;11.60;6.72;;;;;;;-144.57;100.00;62443.72;5056450;28;20402;-65
2023/04/25 00:26:02;;;;;;;11.32;7.18;;;;;;;-144.57;100.00;62443.72;5037632;28;20045;-66
2023/04/25 00:28:28;;;;;;;19.50;7.82;;;;;;;-144.57;100.00;62443.72;5056242;28;20135;-66
2023/04/25 00:30:54;;;;;;;18.65;7.07;;;;;;;-144.57;100.00;62443.72;5037403;28;20128;-65
2023/04/25 00:33:20;;;;;;;14.90;6.97;;;;;;;-144.57;100.00;62443.72;5054575;28;20048;-66
2023/04/25 00:35:45;;;;;;;14.65;7.25;;;;;;;-144.57;100.00;62443.72;5053911;28;20071;-65
2023/04/25 00:38:11;;;;;;;15.75;7.47;;;;;;;-144.57;100.00;62443.72;5055181;28;20459;-66
2023/04/25 00:40:37;;;;;;;17.33;7.65;;;;;;;-144.57;100.00;62443.72;5053933;28;20044;-66
2023/04/25 00:43:03;;;;;;;13.00;7.93;;;;;;;-144.57;100.00;62443.72;5047199;28;20037;-66
2023/04/25 00:45:30;;;;;;;23.38;8.80;;;;;;;-144.57;100.00;62443.72;5068846;28;21280;-66
2023/04/25 00:47:56;;;;;;;16.55;8.35;;;;;;;-144.57;100.00;62443.72;5067979;28;20032;-66
2023/04/25 00:50:23;;;;;;;16.02;8.25;;;;;;;-144.57;100.00;62443.72;5049718;28;20049;-65
2023/04/25 00:52:49;;;;;;;15.77;8.32;;;;;;;-144.57;100.00;62443.72;5067568;28;20036;-67
2023/04/25 00:55:15;;;;;;;15.23;7.70;;;;;;;-144.57;100.00;62443.72;5067457;28;20072;-66
2023/04/25 00:57:42;;;;;;;17.70;8.18;;;;;;;-144.57;100.00;62443.72;5050590;28;20490;-66
2023/04/25 01:00:13;;;;;;;18.58;9.05;;;;;;;-144.57;100.00;62443.72;5068679;28;20055;-66
2023/04/25 01:02:40;;;;;;;20.52;7.85;;;;;;;-144.57;100.00;62443.72;5068457;28;20070;-66
2023/04/25 01:05:06;;;;;;;13.02;7.20;;;;;;;-144.57;100.00;62443.72;5068465;28;20032;-65
2023/04/25 01:07:33;;;;;;;14.45;7.32;;;;;;;-144.57;100.00;62443.72;5067468;28;20157;-67
2023/04/25 01:09:59;;;;;;;14.90;7.43;;;;;;;-144.57;100.00;62443.72;5053351;28;20560;-66
2023/04/25 01:12:25;;;;;;;15.82;7.15;;;;;;;-144.57;100.00;62443.72;5065039;28;20041;-66
2023/04/25 01:14:51;;;;;;;15.60;7.78;;;;;;;-144.57;100.00;62443.72;5067118;28;20047;-66
2023/04/25 01:17:18;;;;;;;15.73;7.90;;;;;;;-144.57;100.00;62443.72;5066933;28;20032;-66
2023/04/25 01:19:47;;;;;;;16.10;7.32;;;;;;;-144.57;100.00;62443.72;5063755;28;20123;-66
2023/04/25 01:22:14;;;;;;;11.73;7.05;;;;;;;-144.57;100.00;62443.72;5066571;28;20032;-66
2023/04/25 01:24:40;;;;;;;11.38;7.03;;;;;;;-144.57;100.00;62443.72;5054218;28;20044;-67
2023/04/25 01:27:06;;;;;;;11.30;6.80;;;;;;;-144.57;100.00;62443.72;5052615;28;20044;-66
2023/04/25 01:29:33;;;;;;;13.27;6.70;;;;;;;-144.57;100.00;62443.72;5053982;28;20514;-67
2023/04/25 01:31:59;;;;;;;13.15;7.03;;;;;;;-144.57;100.00;62443.72;5035819;28;20037;-65
2023/04/25 01:34:25;;;;;;;12.35;7.32;;;;;;;-144.57;100.00;62443.72;5033255;28;20044;-65
2023/04/25 01:36:51;;;;;;;11.75;6.28;;;;;;;-144.57;100.00;62443.72;5052814;28;20071;-65
2023/04/25 01:39:17;;;;;;;11.00;6.40;;;;;;;-144.57;100.00;62443.72;5046238;28;20602;-67
2023/04/25 01:41:45;;;;;;;14.90;6.55;;;;;;;-144.57;100.00;62443.72;5060568;28;20075;-66
2023/04/25 01:44:12;;;;;;;17.30;7.07;;;;;;;-144.57;100.00;62443.72;5066434;28;20466;-66
2023/04/25 01:46:38;;;;;;;12.38;6.40;;;;;;;-144.57;100.00;62443.72;5052992;28;20048;-67
2023/04/25 01:49:04;;;;;;;12.02;6.57;;;;;;;-144.57;100.00;62443.72;5051550;28;20045;-65
2023/04/25 01:51:31;;;;;;;13.23;6.57;;;;;;;-144.57;100.00;62443.72;5037042;28;20033;-64
2023/04/25 01:53:59;;;;;;;13.02;6.30;;;;;;;-144.57;100.00;62443.72;5035668;28;20075;-66
2023/04/25 01:56:25;;;;;;;10.38;6.32;;;;;;;-144.57;100.00;62443.72;5053538;28;20044;-65
2023/04/25 01:58:52;;;;;;;12.43;5.80;;;;;;;-144.57;100.00;62443.72;5053660;28;20433;-65
2023/04/25 02:01:20;;;;;;;13.30;6.22;;;;;;;-144.57;100.00;62443.72;5054697;28;20041;-65
2023/04/25 02:03:59;;;;;;;11.07;5.63;;;;;;;-144.57;100.00;62443.72;5037391;28;20047;-66
2023/04/25 02:06:32;;;;;;;9.38;5.95;;;;;;;-144.57;100.00;62443.72;5056453;28;20506;-66
2023/04/25 02:08:57;;;;;;;9.93;5.53;;;;;;;-144.57;100.00;62443.72;5053285;28;20048;-66
2023/04/25 02:11:23;;;;;;;11.23;5.53;;;;;;;-144.57;100.00;62443.72;5070545;28;20562;-66
2023/04/25 02:14:12;;;;;;;12.75;5.55;;;;;;;-144.57;100.00;62443.72;5051234;28;20044;-66
2023/04/25 02:16:57;;;;;;;16.27;6.28;;;;;;;-144.57;100.00;62443.72;5071181;28;20476;-64
2023/04/25 02:19:22;;;;;;;14.80;5.97;;;;;;;-144.57;100.00;62443.72;5053262;28;20047;-64
2023/04/25 02:21:48;;;;;;;15.50;6.40;;;;;;;-144.57;100.00;62443.72;5071019;28;20036;-65
2023/04/25 02:24:14;;;;;;;17.02;7.43;;;;;;;-144.57;100.00;62443.72;5057326;28;20069;-66
2023/04/25 02:26:40;;;;;;;17.40;7.85;;;;;;;-144.57;100.00;62443.72;5055257;28;20047;-66
2023/04/25 02:29:08;;;;;;;15.55;8.00;;;;;;;-144.57;100.00;62443.72;5056836;28;20075;-66
2023/04/25 02:31:34;;;;;;;18.08;7.38;;;;;;;-144.57;100.00;62443.72;5056031;28;20052;-66
2023/04/25 02:34:00;;;;;;;18.95;7.88;;;;;;;-144.57;100.00;62443.72;5055922;28;20033;-66
2023/04/25 02:36:30;;;;;;;14.27;8.18;;;;;;;-144.57;100.00;62443.72;5056263;28;20037;-66
2023/04/25 02:38:56;;;;;;;16.90;6.60;;;;;;;-144.57;100.00;62443.72;5055997;28;20132;-66
2023/04/25 02:41:21;;;;;;;18.45;7.90;;;;;;;-144.57;100.00;62443.72;5070086;28;20123;-65
2023/04/25 02:43:47;;;;;;;17.23;8.55;;;;;;;-144.57;100.00;62443.72;5070177;28;20593;-65
2023/04/25 02:46:14;;;;;;;19.15;8.02;;;;;;;-144.57;100.00;62443.72;5051554;28;20100;-65
2023/04/25 02:48:39;;;;;;;18.50;7.97;;;;;;;-144.57;100.00;62443.72;5071367;28;20067;-66
2023/04/25 02:51:05;;;;;;;20.80;7.70;;;;;;;-144.57;100.00;62443.72;5054695;28;20498;-65
2023/04/25 02:53:31;;;;;;;21.13;8.65;;;;;;;-144.57;100.00;62443.72;5030433;28;20077;-65
2023/04/25 02:55:58;;;;;;;17.85;7.65;;;;;;;-144.57;100.00;62443.72;5055715;28;20070;-65
2023/04/25 02:58:24;;;;;;;15.77;7.40;;;;;;;-144.57;100.00;62443.72;5056019;28;20120;-65
2023/04/25 03:00:52;;;;;;;23.30;7.50;;;;;;;-144.57;100.00;62443.72;5055212;28;20041;-66
2023/04/25 03:03:21;;;;;;;18.85;8.43;;;;;;;-144.57;100.00;62443.72;5051462;28;20604;-64
2023/04/25 03:05:50;;;;;;;21.60;7.22;;;;;;;-144.57;100.00;62443.72;5055045;28;20567;-66
2023/04/25 03:08:18;;;;;;;16.95;7.13;;;;;;;-144.57;100.00;62443.72;5058809;28;20044;-65
2023/04/25 03:10:44;;;;;;;17.08;7.20;;;;;;;-144.57;100.00;62443.72;5069423;28;20051;-65
2023/04/25 03:13:11;;;;;;;12.48;6.63;;;;;;;-144.57;100.00;62443.72;5037105;28;20073;-65
2023/04/25 03:15:38;;;;;;;21.88;7.85;;;;;;;-144.57;100.00;62443.72;5054959;28;20049;-65
2023/04/25 03:18:04;;;;;;;18.58;6.60;;;;;;;-144.57;100.00;62443.72;5055897;28;20041;-65
2023/04/25 03:20:30;;;;;;;14.23;6.25;;;;;;;-144.57;100.00;62443.72;5055410;28;20041;-62
2023/04/25 03:22:56;;;;;;;23.88;7.10;;;;;;;-144.57;100.00;62443.72;5066951;28;20036;-65
2023/04/25 03:25:22;;;;;;;12.05;6.20;;;;;;;-144.57;100.00;62443.72;5069772;28;20048;-65
2023/04/25 03:27:48;;;;;;;15.57;7.32;;;;;;;-144.57;100.00;62443.72;5062507;28;20037;-65
2023/04/25 03:30:14;;;;;;;17.45;8.48;;;;;;;-144.57;100.00;62443.72;5068726;28;20135;-66
2023/04/25 03:32:42;;;;;;;9.80;6.65;;;;;;;-144.57;100.00;62443.72;5072936;28;20050;-66
2023/04/25 03:35:08;;;;;;;16.27;6.32;;;;;;;-144.57;100.00;62443.72;5039893;28;20139;-65
2023/04/25 03:37:34;;;;;;;9.25;6.10;;;;;;;-144.57;100.00;62443.72;5055066;28;20032;-65
2023/04/25 03:40:00;;;;;;;13.80;5.80;;;;;;;-144.57;100.00;62443.72;5058424;28;20036;-66
2023/04/25 03:42:40;;;;;;;16.52;6.47;;;;;;;-144.57;100.00;62443.72;5057110;28;20040;-65
2023/04/25 03:45:07;;;;;;;9.50;5.57;;;;;;;-144.57;100.00;62443.72;5067498;28;20090;-66
2023/04/25 03:47:33;;;;;;;16.08;8.20;;;;;;;-144.57;100.00;62443.72;5067999;28;20535;-64
2023/04/25 03:50:00;;;;;;;15.38;6.40;;;;;;;-144.57;100.00;62443.72;5059163;28;20045;-65
2023/04/25 03:52:26;;;;;;;17.15;6.43;;;;;;;-144.57;100.00;62443.72;5055221;28;20064;-65
2023/04/25 03:54:52;;;;;;;15.50;5.72;;;;;;;-144.57;100.00;62443.72;5054013;28;20053;-66
2023/04/25 03:57:20;;;;;;;12.10;5.90;;;;;;;-144.57;100.00;62443.72;5067940;28;20032;-64
2023/04/25 03:59:46;;;;;;;10.32;5.28;;;;;;;-144.57;100.00;62443.72;5055560;28;20068;-65
2023/04/25 04:02:14;;;;;;;11.93;5.63;;;;;;;-144.57;100.00;62443.72;5051991;28;20490;-66
2023/04/25 04:04:40;;;;;;;9.95;5.57;;;;;;;-144.57;100.00;62443.72;5052421;28;20044;-66
2023/04/25 04:07:06;;;;;;;17.92;6.07;;;;;;;-144.57;100.00;62443.72;5052026;28;20061;-66
2023/04/25 04:09:37;;;;;;;22.60;7.18;;;;;;;-144.57;100.00;62443.72;5050515;28;20060;-65
2023/04/25 04:12:08;;;;;;;18.92;8.05;;;;;;;-144.57;100.00;62443.72;5062692;28;20413;-67
2023/04/25 04:14:35;;;;;;;34.50;8.15;;;;;;;-144.57;100.00;62443.72;5067863;28;20052;-66
2023/04/25 04:17:01;;;;;;;19.20;6.95;;;;;;;-144.57;100.00;62443.72;5054234;28;20037;-65
2023/04/25 04:19:27;;;;;;;15.52;6.53;;;;;;;-144.57;100.00;62443.72;5053940;28;20102;-66
2023/04/25 04:22:08;;;;;;;16.60;6.20;;;;;;;-144.57;100.00;62443.72;5062240;28;20482;-65
2023/04/25 04:24:34;;;;;;;19.08;6.30;;;;;;;-144.57;100.00;62443.72;5067596;28;20476;-66
2023/04/25 04:27:05;;;;;;;20.83;6.78;;;;;;;-144.57;100.00;62443.72;5061807;28;20442;-67
2023/04/25 04:29:46;;;;;;;14.45;6.38;;;;;;;-144.57;100.00;62443.72;5066597;28;20449;-66
2023/04/25 04:32:17;;;;;;;10.48;6.40;;;;;;;-144.57;100.00;62443.72;5054006;28;20044;-66
2023/04/25 04:34:43;;;;;;;19.48;10.93;;;;;;;-144.57;100.00;62443.72;5054519;28;20044;-66
2023/04/25 04:37:13;;;;;;;15.05;6.70;;;;;;;-144.57;100.00;62443.72;5053836;28;20076;-66
2023/04/25 04:39:41;;;;;;;13.20;6.40;;;;;;;-144.57;100.00;62443.72;5022005;28;20131;-66
2023/04/25 04:42:17;;;;;;;15.07;6.45;;;;;;;-144.57;100.00;62443.72;5053401;28;20044;-66
2023/04/25 04:44:54;;;;;;;15.45;6.20;;;;;;;-144.57;100.00;62443.72;5062308;28;20067;-65
2023/04/25 04:47:39;;;;;;;16.45;6.38;;;;;;;-144.57;100.00;62443.72;5066611;28;20136;-66
2023/04/25 04:50:32;;;;;;;12.70;6.57;;;;;;;-144.57;100.00;62443.72;5067056;28;20048;-66
2023/04/25 04:53:23;;;;;;;16.30;6.53;;;;;;;-144.57;100.00;62443.72;5051024;28;20076;-65
2023/04/25 04:56:12;;;;;;;20.88;7.25;;;;;;;-144.57;100.00;62443.72;5052496;28;20048;-62
2023/04/25 04:58:52;;;;;;;17.90;7.25;;;;;;;-144.57;100.00;62443.72;5053398;28;20044;-63
2023/04/25 05:01:44;;;;;;;23.60;7.18;;;;;;;-144.57;100.00;62443.72;5051870;28;20087;-62
2023/04/25 05:04:40;;;;;;;14.50;6.93;;;;;;;-144.57;100.00;62443.72;5052488;28;20147;-65
2023/04/25 05:07:25;;;;;;;16.83;7.47;;;;;;;-144.57;100.00;62443.72;5058266;28;20041;-68
2023/04/25 05:10:05;;;;;;;16.00;7.65;;;;;;;-144.57;100.00;62443.72;5055739;28;20083;-64
2023/04/25 05:12:36;;;;;;;15.52;7.82;;;;;;;-144.57;100.00;62443.72;5071412;28;20044;-63
2023/04/25 05:15:39;;;;;;;14.25;8.38;;;;;;;-144.57;100.00;62443.72;5068909;28;20052;-65
2023/04/25 05:18:21;;;;;;;16.52;8.43;;;;;;;-144.57;100.00;62443.72;5056544;28;20119;-64
2023/04/25 05:21:19;;;;;;;20.77;8.07;;;;;;;-144.57;100.00;62443.72;5040899;28;20079;-66
2023/04/25 05:24:05;;;;;;;20.23;7.85;;;;;;;-144.57;100.00;62443.72;5033643;28;20036;-64
2023/04/25 05:26:49;;;;;;;21.02;7.90;;;;;;;-144.57;100.00;62443.72;5051787;28;20045;-68
2023/04/25 05:29:28;;;;;;;20.30;9.48;;;;;;;-144.57;100.00;62443.72;5050346;28;20418;-71
2023/04/25 05:32:02;;;;;;;21.98;9.05;;;;;;;-144.57;100.00;62443.72;5049490;28;20049;-70
2023/04/25 05:34:28;;;;;;;24.65;9.63;;;;;;;-144.57;100.00;62443.72;5057970;28;20422;-72
2023/04/25 05:37:13;;;;;;;24.00;9.98;;;;;;;-144.57;100.00;62443.72;5054792;28;20037;-71
2023/04/25 05:39:55;;;;;;;27.70;12.00;;;;;;;-144.57;100.00;62443.72;5035205;28;20126;-71
2023/04/25 05:42:44;;;;;;;25.73;11.80;;;;;;;-144.57;100.00;62443.72;5051524;28;20037;-71
2023/04/25 05:45:28;;;;;;;20.52;11.63;;;;;;;-144.57;100.00;62443.72;5059225;28;20398;-69
2023/04/25 05:48:12;;;;;;;19.60;12.57;;;;;;;-144.57;100.00;62443.72;5049098;28;20045;-70
2023/04/25 05:50:58;;;;;;;21.17;12.60;;;;;;;-144.57;100.00;62443.72;5059414;28;20083;-70
2023/04/25 05:53:50;;;;;;;27.90;12.90;;;;;;;-144.57;100.00;62443.72;5053954;28;20444;-71
2023/04/25 05:56:16;;;;;;;23.05;12.50;;;;;;;-144.57;100.00;62443.72;5068268;28;20151;-71
2023/04/25 05:58:41;;;;;;;21.70;12.90;;;;;;;-144.57;100.00;62443.72;5062777;28;20040;-69
2023/04/25 06:01:10;;;;;;;19.13;12.15;;;;;;;-144.57;100.00;62443.72;5061965;28;20055;-71
2023/04/25 06:03:37;;;;;;;25.08;12.27;;;;;;;-144.57;100.00;62443.72;5049663;28;20041;-65
2023/04/25 06:06:04;;;;;;;30.50;12.80;;;;;;;-144.57;100.00;62443.72;5048071;28;20581;-65
2023/04/25 06:08:29;;;;;;;25.50;11.68;;;;;;;-144.57;100.00;62443.72;5056626;28;20041;-69
2023/04/25 06:10:55;;;;;;;19.38;10.93;;;;;;;-144.57;100.00;62443.72;5068744;28;20497;-73
2023/04/25 06:13:22;;;;;;;19.77;10.68;;;;;;;-144.57;100.00;62443.72;5064279;28;20048;-71
2023/04/25 06:15:48;;;;;;;22.77;10.52;;;;;;;-144.57;100.00;62443.72;5047823;28;20045;-70
2023/04/25 06:18:14;;;;;;;14.25;8.90;;;;;;;-144.57;100.00;62443.72;5062736;28;20521;-69
2023/04/25 06:20:40;;;;;;;19.38;8.90;;;;;;;-144.57;100.00;62443.72;5065027;28;20039;-69
2023/04/25 06:23:06;;;;;;;15.30;9.50;;;;;;;-144.57;100.00;62443.72;5059588;28;20040;-72
2023/04/25 06:25:58;;;;;;;15.98;8.73;;;;;;;-144.57;100.00;62443.72;5060573;28;20060;-66
2023/04/25 06:28:24;;;;;;;16.33;8.98;;;;;;;-144.57;100.00;62443.72;5060959;28;20044;-68
2023/04/25 06:30:51;;;;;;;19.90;9.05;;;;;;;-144.57;100.00;62443.72;5063842;28;20047;-67
2023/04/25 06:33:20;;;;;;;22.67;9.30;;;;;;;-144.57;100.00;62443.72;5053643;28;20079;-69
2023/04/25 06:35:46;;;;;;;29.20;10.57;;;;;;;-144.57;100.00;62443.72;5066060;28;20072;-66
2023/04/25 06:38:15;;;;;;;17.10;8.68;;;;;;;-144.57;100.00;62443.72;5063563;28;20478;-68
2023/04/25 06:40:45;;;;;;;14.88;8.35;;;;;;;-144.57;100.00;62443.72;5065530;28;20490;-68
2023/04/25 06:43:11;;;;;;;21.83;8.90;;;;;;;-144.57;100.00;62443.72;5050338;28;20040;-67
2023/04/25 06:46:03;;;;;;;16.33;9.13;;;;;;;-144.57;100.00;62443.72;5063175;28;20589;-68
2023/04/25 06:48:31;;;;;;;20.00;9.77;;;;;;;-144.57;100.00;62443.72;5061412;28;20040;-67
2023/04/25 06:50:58;;;;;;;12.18;8.20;;;;;;;-144.57;100.00;62443.72;5047558;28;20037;-67
2023/04/25 06:53:25;;;;;;;14.85;7.72;;;;;;;-144.57;100.00;62443.72;5046023;28;20033;-68
2023/04/25 06:55:57;;;;;;;13.57;7.70;;;;;;;-144.57;100.00;62443.72;5064661;28;20091;-68
2023/04/25 06:58:26;;;;;;;12.40;7.72;;;;;;;-144.57;100.00;62443.72;5032769;28;20546;-67
2023/04/25 07:00:52;;;;;;;14.15;8.23;;;;;;;-144.57;100.00;62443.72;5055342;28;20067;-67
2023/04/25 07:03:21;;;;;;;10.45;8.23;;;;;;;-144.57;100.00;62443.72;5031188;28;20510;-69
2023/04/25 07:05:48;;;;;;;13.45;7.28;;;;;;;-144.57;100.00;62443.72;5051203;28;20545;-70
2023/04/25 07:08:14;;;;;;;18.77;8.50;;;;;;;-144.57;100.00;62443.72;5051522;28;20124;-67
2023/04/25 07:10:41;;;;;;;18.13;7.97;;;;;;;-144.57;100.00;62443.72;5047508;28;20045;-70
2023/04/25 07:13:06;;;;;;;12.00;8.48;;;;;;;-144.57;100.00;62443.72;5041535;28;20029;-68
2023/04/25 07:15:32;;;;;;;16.25;8.23;;;;;;;-144.57;100.00;62443.72;5066294;28;20466;-68
2023/04/25 07:18:00;;;;;;;13.90;8.50;;;;;;;-144.57;100.00;62443.72;5051275;28;20036;-68
2023/04/25 07:20:27;;;;;;;18.55;7.85;;;;;;;-144.57;100.00;62443.72;5035418;28;20044;-69
2023/04/25 07:22:53;;;;;;;11.50;6.88;;;;;;;-144.57;100.00;62443.72;5054045;28;20037;-68
2023/04/25 07:25:19;;;;;;;10.20;7.05;;;;;;;-144.57;100.00;62443.72;5054022;28;20455;-68
2023/04/25 07:27:46;;;;;;;13.00;6.88;;;;;;;-144.57;100.00;62443.72;5058019;28;20040;-68
2023/04/25 07:30:15;;;;;;;12.27;6.22;;;;;;;-144.57;100.00;62443.72;5050166;28;20037;-67
2023/04/25 07:32:41;;;;;;;9.73;6.45;;;;;;;-144.57;100.00;62443.72;5034070;28;20036;-68
2023/04/25 07:35:08;;;;;;;11.35;5.55;;;;;;;-144.57;100.00;62443.72;5068883;28;20138;-68
2023/04/25 07:37:35;;;;;;;13.95;5.85;;;;;;;-144.57;100.00;62443.72;5068705;28;20056;-68
2023/04/25 07:40:10;;;;;;;10.68;6.05;;;;;;;-144.57;100.00;62443.72;5068130;28;20040;-68
2023/04/25 07:42:40;;;;;;;10.35;6.03;;;;;;;-144.57;100.00;62443.72;5067849;28;20035;-69
2023/04/25 07:45:07;;;;;;;16.48;5.97;;;;;;;-144.57;100.00;62443.72;5067947;28;20044;-69
2023/04/25 07:47:33;;;;;;;12.65;6.47;;;;;;;-144.57;100.00;62443.72;5068017;28;20426;-70
2023/04/25 07:50:00;;;;;;;14.13;6.60;;;;;;;-144.57;100.00;62443.72;5068335;28;20044;-69
2023/04/25 07:52:26;;;;;;;14.10;7.05;;;;;;;-144.57;100.00;62443.72;5065516;28;20048;-70
2023/04/25 07:55:00;;;;;;;14.05;6.60;;;;;;;-144.57;100.00;62443.72;5068198;28;20134;-67
2023/04/25 07:57:34;;;;;;;11.77;5.95;;;;;;;-144.57;100.00;62443.72;5068532;28;20056;-67
2023/04/25 08:00:02;;;;;;;12.07;6.65;;;;;;;-144.57;100.00;62443.72;5054577;28;20096;-69
2023/04/25 08:02:31;;;;;;;7.97;5.95;;;;;;;-144.57;100.00;62443.72;5068193;28;20033;-64
2023/04/25 08:04:57;;;;;;;15.65;6.22;;;;;;;-144.57;100.00;62443.72;5067448;28;20047;-63
2023/04/25 08:07:23;;;;;;;15.27;6.57;;;;;;;-144.57;100.00;62443.72;5067924;28;21846;-63
2023/04/25 08:09:53;;;;;;;13.37;7.10;;;;;;;-144.57;100.00;62443.72;5062098;28;20037;-64
2023/04/25 08:12:29;;;;;;;21.02;7.35;;;;;;;-144.57;100.00;62443.72;5064248;28;20059;-64
2023/04/25 08:14:55;;;;;;;19.05;6.22;;;;;;;-144.57;100.00;62443.72;5062912;28;20526;-63
2023/04/25 08:17:27;;;;;;;14.60;6.53;;;;;;;-144.57;100.00;62443.72;5050615;28;20048;-64
2023/04/25 08:19:53;;;;;;;9.27;7.03;;;;;;;-144.57;100.00;62443.72;5051282;28;20510;-63
2023/04/25 08:22:25;;;;;;;16.02;8.30;;;;;;;-144.57;100.00;62443.72;5049265;28;20040;-64
2023/04/25 08:25:01;;;;;;;20.08;8.82;;;;;;;-144.57;100.00;62443.72;5051432;28;20049;-63
2023/04/25 08:27:27;;;;;;;15.68;7.40;;;;;;;-144.57;100.00;62443.72;5060779;28;20045;-64
2023/04/25 08:29:53;;;;;;;16.40;7.30;;;;;;;-144.57;100.00;62443.72;5052703;28;20044;-62
2023/04/25 08:32:21;;;;;;;14.82;7.32;;;;;;;-144.57;100.00;62443.72;5069558;28;20077;-64
2023/04/25 08:35:05;;;;;;;18.95;7.78;;;;;;;-144.57;100.00;62443.72;5060351;28;20052;-65
2023/04/25 08:37:31;;;;;;;12.57;6.78;;;;;;;-144.57;100.00;62443.72;5056751;28;20098;-66
2023/04/25 08:40:02;;;;;;;;;;;;;;;-144.57;100.00;62443.72;5060733;28;20045;-64
2023/04/25 08:42:48;;;;;;;9.88;6.15;;;;;;;-144.57;100.00;62443.72;5063523;28;19928;-65
2023/04/25 08:45:15;;;;;;;15.65;5.68;;;;;;;-144.57;100.00;62443.72;5037314;28;20041;-65
2023/04/25 08:47:43;;;;;;;13.38;6.03;;;;;;;-144.57;100.00;62443.72;5050246;28;20037;-64
2023/04/25 08:50:09;;;;;;;13.13;6.50;;;;;;;-144.57;100.00;62443.72;5036465;28;20053;-64
2023/04/25 08:52:38;;;;;;;17.38;6.45;;;;;;;-144.57;100.00;62443.72;5054422;28;20518;-64
2023/04/25 08:55:07;;;;;;;12.95;6.00;;;;;;;-144.57;100.00;62443.72;5051536;28;20422;-64
2023/04/25 08:57:33;;;;;;;12.00;6.18;;;;;;;-144.57;100.00;62443.72;5048684;28;20041;-67
2023/04/25 09:00:00;;;;;;;19.00;6.22;;;;;;;-144.57;100.00;62443.72;5059941;28;20061;-65
2023/04/25 09:02:31;;;;;;;15.82;6.95;;;;;;;-144.57;100.00;62443.72;5064787;28;20444;-66
2023/04/25 09:04:57;;;;;;;13.13;6.68;;;;;;;-144.57;100.00;62443.72;5065074;28;20045;-65
2023/04/25 09:07:23;;;;;;;16.85;6.47;;;;;;;-144.57;100.00;62443.72;5060408;28;20462;-65
2023/04/25 09:09:49;;;;;;;19.33;7.13;;;;;;;-144.57;100.00;62443.72;5070526;28;20041;-65
2023/04/25 09:12:20;;;;;;;9.30;5.70;;;;;;;-144.57;100.00;62443.72;5067079;28;20036;-65
2023/04/25 09:15:05;;;;;;;20.50;7.03;;;;;;;-144.57;100.00;62443.72;5068813;28;20048;-64
2023/04/25 09:18:03;;;;;;;13.02;6.60;;;;;;;-144.57;100.00;62443.72;5057106;28;20056;-65
2023/04/25 09:20:42;;;;;;;9.20;6.30;;;;;;;-144.57;100.00;62443.72;5052779;28;20604;-65
2023/04/25 09:23:08;;;;;;;13.73;7.03;;;;;;;-144.57;100.00;62443.72;5063300;28;20049;-66
2023/04/25 09:25:38;;;;;;;16.25;6.93;;;;;;;-144.57;100.00;62443.72;5062352;28;20545;-66
2023/04/25 09:28:06;;;;;;;13.30;6.40;;;;;;;-144.57;100.00;62443.72;5049176;28;20097;-68
2023/04/25 09:30:34;;;;;;;12.20;5.75;;;;;;;-144.57;100.00;62443.72;5061915;28;20032;-65
2023/04/25 09:33:17;;;;;;;12.38;6.38;;;;;;;-144.57;100.00;62443.72;5056885;28;20071;-65
2023/04/25 09:35:52;;;;;;;8.98;5.88;;;;;;;-144.57;100.00;62443.72;5058130;28;20076;-63
2023/04/25 09:38:45;;;;;;;11.25;5.80;;;;;;;-144.57;100.00;62443.72;5051609;28;20082;-65
2023/04/25 09:41:25;;;;;;;11.20;5.90;;;;;;;-144.57;100.00;62443.72;5055380;28;20131;-66
2023/04/25 09:43:56;;;;;;;14.40;6.32;;;;;;;-144.57;100.00;62443.72;5061815;28;20450;-67
2023/04/25 09:46:25;;;;;;;10.07;6.10;;;;;;;-144.57;100.00;62443.72;5053819;28;20059;-67
2023/04/25 09:49:01;;;;;;;12.68;6.00;;;;;;;-144.57;100.00;62443.72;5069907;28;20104;-67
2023/04/25 09:51:36;;;;;;;19.15;6.80;;;;;;;-144.57;100.00;62443.72;5015136;28;20052;-66
2023/04/25 09:54:05;;;;;;;13.50;6.60;;;;;;;-144.57;100.00;62443.72;5026001;28;20068;-66
2023/04/25 09:56:38;;;;;;;10.35;6.10;;;;;;;-144.57;100.00;62443.72;5030945;28;20381;-66
2023/04/25 09:59:16;;;;;;;12.55;6.03;;;;;;;-144.57;100.00;62443.72;5057145;28;20040;-67
2023/04/25 10:01:49;;;;;;;11.10;5.53;;;;;;;-144.57;100.00;62443.72;5041474;28;20044;-68
2023/04/25 10:04:27;;;;;;;12.13;5.40;;;;;;;-144.57;100.00;62443.72;5044346;28;20521;-69
2023/04/25 10:06:58;;;;;;;9.38;5.30;;;;;;;-144.57;100.00;62443.72;5037260;28;20059;-66
2023/04/25 10:09:27;;;;;;;13.20;5.60;;;;;;;-144.57;100.00;62443.72;5056756;28;20049;-67
2023/04/25 10:11:54;;;;;;;13.85;6.22;;;;;;;-144.57;100.00;62443.72;5056170;28;20050;-68
2023/04/25 10:14:22;;;;;;;10.82;6.05;;;;;;;-144.57;100.00;62443.72;5057548;28;20051;-69
2023/04/25 10:16:48;;;;;;;9.95;5.40;;;;;;;-144.57;100.00;62443.72;5045163;28;20044;-67
2023/04/25 10:19:15;;;;;;;13.85;5.50;;;;;;;-144.57;100.00;62443.72;5056594;28;20040;-69
2023/04/25 10:21:48;;;;;;;8.82;5.13;;;;;;;-144.57;100.00;62443.72;5058206;28;20298;-68
2023/04/25 10:24:15;;;;;;;9.52;5.70;;;;;;;-144.57;100.00;62443.72;5041577;28;20536;-67
2023/04/25 10:26:41;;;;;;;9.30;5.15;;;;;;;-144.57;100.00;62443.72;5061364;28;20029;-69
2023/04/25 10:29:06;;;;;;;8.63;4.45;;;;;;;-144.57;100.00;62443.72;5066747;28;20036;-66
2023/04/25 10:31:32;;;;;;;6.45;4.40;;;;;;;-144.57;100.00;62443.72;5058115;28;20048;-66
2023/04/25 10:34:00;;;;;;;9.05;4.85;;;;;;;-144.57;100.00;62443.72;5055767;28;20056;-67
2023/04/25 10:36:27;;;;;;;9.20;5.07;;;;;;;-144.57;100.00;62443.72;5059836;28;20363;-69
2023/04/25 10:38:54;;;;;;;7.13;5.00;;;;;;;-144.57;100.00;62443.72;5056393;28;20147;-66
2023/04/25 10:41:21;;;;;;;13.52;5.20;;;;;;;-144.57;100.00;62443.72;5043502;28;20124;-66
2023/04/25 10:43:48;;;;;;;11.80;5.60;;;;;;;-144.57;100.00;62443.72;5058448;28;20095;-65
2023/04/25 10:46:25;;;;;;;7.55;5.50;;;;;;;-144.57;100.00;62443.72;5063962;28;20082;-67
2023/04/25 10:48:51;;;;;;;23.05;5.32;;;;;;;-144.57;100.00;62443.72;5061179;28;20036;-65
2023/04/25 10:51:28;;;;;;;11.00;5.28;;;;;;;-144.57;100.00;62443.72;5062771;28;20099;-68
2023/04/25 10:54:03;;;;;;;8.32;5.20;;;;;;;-144.57;100.00;62443.72;5061624;28;20124;-65
2023/04/25 10:56:36;;;;;;;6.40;5.07;;;;;;;-144.57;100.00;62443.72;5064031;28;20056;-64
2023/04/25 10:59:05;;;;;;;12.68;5.55;;;;;;;-144.57;100.00;62443.72;5062125;28;20056;-65
2023/04/25 11:01:45;;;;;;;11.48;5.40;;;;;;;-144.57;100.00;62443.72;5062291;28;20635;-67
2023/04/25 11:04:30;;;;;;;12.18;4.75;;;;;;;-144.57;100.00;62443.72;5063964;28;20126;-66
2023/04/25 11:07:02;;;;;;;7.03;4.15;;;;;;;-144.57;100.00;62443.72;5063190;28;20041;-66
2023/04/25 11:09:28;;;;;;;6.82;4.03;;;;;;;-144.57;100.00;62443.72;5065321;28;20128;-66
2023/04/25 11:11:55;;;;;;;7.55;4.00;;;;;;;-144.57;100.00;62443.72;5064351;28;20131;-66
2023/04/25 11:14:21;;;;;;;7.32;4.07;;;;;;;-144.57;100.00;62443.72;5064631;28;20040;-65
2023/04/25 11:16:52;;;;;;;11.13;4.38;;;;;;;-144.57;100.00;62443.72;5062172;28;20063;-65